sensor_id;sensor_type;location;lat;lon;timestamp;pressure;altitude;pressure_sealevel;temperature;humidity
55044;BME280;54902;50.420;18.854;2023-06-22T00:00:06;101495.27;;;22.13;61.92
55044;BME280;54902;50.420;18.854;2023-06-22T00:00:42;101492.67;;;22.11;61.89
55044;BME280;54902;50.420;18.854;2023-06-22T00:01:15;101492.67;;;22.11;61.92
55044;BME280;54902;50.420;18.854;2023-06-22T00:01:46;101490.63;;;22.05;61.92
55044;BME280;54902;50.420;18.854;2023-06-22T00:02:17;101494.77;;;22.09;61.91
55044;BME280;54902;50.420;18.854;2023-06-22T00:02:48;101494.77;;;22.09;61.90
55044;BME280;54902;50.420;18.854;2023-06-22T00:03:20;101494.10;;;22.07;61.91
55044;BME280;54902;50.420;18.854;2023-06-22T00:03:51;101496.89;;;22.07;61.94
55044;BME280;54902;50.420;18.854;2023-06-22T00:04:22;101495.34;;;22.05;61.93
55044;BME280;54902;50.420;18.854;2023-06-22T00:04:53;101494.45;;;22.04;61.93
55044;BME280;54902;50.420;18.854;2023-06-22T00:05:24;101489.95;;;22.03;61.93
55044;BME280;54902;50.420;18.854;2023-06-22T00:05:55;101491.85;;;22.03;61.95
55044;BME280;54902;50.420;18.854;2023-06-22T00:06:27;101493.78;;;22.02;61.92
55044;BME280;54902;50.420;18.854;2023-06-22T00:06:57;101498.65;;;22.00;61.93
55044;BME280;54902;50.420;18.854;2023-06-22T00:07:28;101488.59;;;21.99;61.92
55044;BME280;54902;50.420;18.854;2023-06-22T00:08:03;101482.90;;;21.93;61.91
55044;BME280;54902;50.420;18.854;2023-06-22T00:08:35;101501.80;;;21.97;61.90
55044;BME280;54902;50.420;18.854;2023-06-22T00:09:06;101506.52;;;21.97;61.96
55044;BME280;54902;50.420;18.854;2023-06-22T00:09:37;101505.82;;;21.95;62.00
55044;BME280;54902;50.420;18.854;2023-06-22T00:10:08;101506.88;;;21.94;62.00
55044;BME280;54902;50.420;18.854;2023-06-22T00:10:39;101500.45;;;21.93;61.96
55044;BME280;54902;50.420;18.854;2023-06-22T00:11:10;101504.27;;;21.92;62.03
55044;BME280;54902;50.420;18.854;2023-06-22T00:11:41;101511.77;;;21.92;62.09
55044;BME280;54902;50.420;18.854;2023-06-22T00:12:12;101506.39;;;21.90;62.13
55044;BME280;54902;50.420;18.854;2023-06-22T00:12:43;101510.21;;;21.89;62.10
55044;BME280;54902;50.420;18.854;2023-06-22T00:13:14;101514.92;;;21.89;62.10
55044;BME280;54902;50.420;18.854;2023-06-22T00:13:47;101510.21;;;21.89;62.16
55044;BME280;54902;50.420;18.854;2023-06-22T00:14:21;101514.04;;;21.88;62.19
55044;BME280;54902;50.420;18.854;2023-06-22T00:14:52;101514.04;;;21.88;62.16
55044;BME280;54902;50.420;18.854;2023-06-22T00:15:23;101501.54;;;21.84;62.13
55044;BME280;54902;50.420;18.854;2023-06-22T00:15:54;101510.59;;;21.86;62.28
55044;BME280;54902;50.420;18.854;2023-06-22T00:16:25;101510.59;;;21.86;62.31
55044;BME280;54902;50.420;18.854;2023-06-22T00:16:56;101512.48;;;21.86;62.31
55044;BME280;54902;50.420;18.854;2023-06-22T00:17:29;101508.00;;;21.85;62.30
55044;BME280;54902;50.420;18.854;2023-06-22T00:18:00;101511.82;;;21.84;62.27
55044;BME280;54902;50.420;18.854;2023-06-22T00:18:32;101504.52;;;21.83;62.24
55044;BME280;54902;50.420;18.854;2023-06-22T00:19:03;101505.40;;;21.83;62.24
55044;BME280;54902;50.420;18.854;2023-06-22T00:19:34;101510.97;;;21.83;62.22
55044;BME280;54902;50.420;18.854;2023-06-22T00:20:07;101510.09;;;21.83;62.26
55044;BME280;54902;50.420;18.854;2023-06-22T00:20:41;101502.77;;;21.82;62.20
55044;BME280;54902;50.420;18.854;2023-06-22T00:21:13;101513.91;;;21.82;62.25
55044;BME280;54902;50.420;18.854;2023-06-22T00:21:44;101502.77;;;21.82;62.27
55044;BME280;54902;50.420;18.854;2023-06-22T00:22:17;101504.70;;;21.81;62.37
55044;BME280;54902;50.420;18.854;2023-06-22T00:22:48;101507.48;;;21.81;62.40
55044;BME280;54902;50.420;18.854;2023-06-22T00:23:19;101505.74;;;21.80;62.40
55044;BME280;54902;50.420;18.854;2023-06-22T00:23:50;101501.91;;;21.81;62.40
55044;BME280;54902;50.420;18.854;2023-06-22T00:24:22;101500.18;;;21.80;62.44
55044;BME280;54902;50.420;18.854;2023-06-22T00:24:53;101498.43;;;21.79;62.46
55044;BME280;54902;50.420;18.854;2023-06-22T00:25:25;101493.76;;;21.80;62.46
55044;BME280;54902;50.420;18.854;2023-06-22T00:25:56;101502.11;;;21.80;62.52
55044;BME280;54902;50.420;18.854;2023-06-22T00:26:27;101497.39;;;21.80;62.59
55044;BME280;54902;50.420;18.854;2023-06-22T00:26:58;101502.96;;;21.80;62.58
55044;BME280;54902;50.420;18.854;2023-06-22T00:27:29;101493.76;;;21.80;62.54
55044;BME280;54902;50.420;18.854;2023-06-22T00:28:00;101487.30;;;21.79;62.47
55044;BME280;54902;50.420;18.854;2023-06-22T00:28:30;101492.01;;;21.79;62.43
55044;BME280;54902;50.420;18.854;2023-06-22T00:29:01;101494.61;;;21.80;62.51
55044;BME280;54902;50.420;18.854;2023-06-22T00:29:32;101492.01;;;21.79;62.61
55044;BME280;54902;50.420;18.854;2023-06-22T00:30:04;101492.87;;;21.79;62.70
55044;BME280;54902;50.420;18.854;2023-06-22T00:30:35;101489.05;;;21.80;62.65
55044;BME280;54902;50.420;18.854;2023-06-22T00:31:06;101489.05;;;21.80;62.70
55044;BME280;54902;50.420;18.854;2023-06-22T00:31:37;101494.80;;;21.79;62.65
55044;BME280;54902;50.420;18.854;2023-06-22T00:32:08;101492.87;;;21.79;62.71
55044;BME280;54902;50.420;18.854;2023-06-22T00:32:39;101492.87;;;21.79;62.74
55044;BME280;54902;50.420;18.854;2023-06-22T00:33:10;101482.82;;;21.78;62.83
55044;BME280;54902;50.420;18.854;2023-06-22T00:33:41;101488.38;;;21.78;62.84
55044;BME280;54902;50.420;18.854;2023-06-22T00:34:11;101491.16;;;21.78;62.82
55044;BME280;54902;50.420;18.854;2023-06-22T00:34:42;101483.85;;;21.77;62.80
55044;BME280;54902;50.420;18.854;2023-06-22T00:35:13;101488.38;;;21.78;62.80
55044;BME280;54902;50.420;18.854;2023-06-22T00:35:44;101486.64;;;21.77;62.84
55044;BME280;54902;50.420;18.854;2023-06-22T00:36:15;101483.85;;;21.77;62.88
55044;BME280;54902;50.420;18.854;2023-06-22T00:36:49;101483.85;;;21.77;62.88
55044;BME280;54902;50.420;18.854;2023-06-22T00:37:22;101490.47;;;21.76;62.87
55044;BME280;54902;50.420;18.854;2023-06-22T00:37:59;101485.78;;;21.77;62.85
55044;BME280;54902;50.420;18.854;2023-06-22T00:38:35;101491.35;;;21.77;62.83
55044;BME280;54902;50.420;18.854;2023-06-22T00:39:10;101497.95;;;21.76;62.85
55044;BME280;54902;50.420;18.854;2023-06-22T00:39:45;101496.03;;;21.76;62.84
55044;BME280;54902;50.420;18.854;2023-06-22T00:40:16;101491.35;;;21.77;62.87
55044;BME280;54902;50.420;18.854;2023-06-22T00:40:52;101489.80;;;21.74;62.93
55044;BME280;54902;50.420;18.854;2023-06-22T00:41:22;101493.23;;;21.76;62.87
55044;BME280;54902;50.420;18.854;2023-06-22T00:41:54;101495.17;;;21.76;62.88
55044;BME280;54902;50.420;18.854;2023-06-22T00:42:25;101502.63;;;21.75;62.85
55044;BME280;54902;50.420;18.854;2023-06-22T00:42:57;101504.37;;;21.76;62.86
55044;BME280;54902;50.420;18.854;2023-06-22T00:43:28;101501.77;;;21.75;62.86
55044;BME280;54902;50.420;18.854;2023-06-22T00:43:58;101505.42;;;21.75;62.86
55044;BME280;54902;50.420;18.854;2023-06-22T00:44:29;101507.34;;;21.75;62.82
55044;BME280;54902;50.420;18.854;2023-06-22T00:45:00;101507.34;;;21.75;62.85
55044;BME280;54902;50.420;18.854;2023-06-22T00:45:31;101507.34;;;21.75;62.79
55044;BME280;54902;50.420;18.854;2023-06-22T00:46:02;101512.05;;;21.74;62.75
55044;BME280;54902;50.420;18.854;2023-06-22T00:46:33;101509.46;;;21.73;62.79
55044;BME280;54902;50.420;18.854;2023-06-22T00:47:04;101516.73;;;21.74;62.78
55044;BME280;54902;50.420;18.854;2023-06-22T00:47:37;101512.05;;;21.74;62.93
55044;BME280;54902;50.420;18.854;2023-06-22T00:48:08;101510.31;;;21.73;62.95
55044;BME280;54902;50.420;18.854;2023-06-22T00:48:40;101517.62;;;21.74;62.92
55044;BME280;54902;50.420;18.854;2023-06-22T00:49:14;101512.05;;;21.74;62.91
55044;BME280;54902;50.420;18.854;2023-06-22T00:49:47;101514.13;;;21.72;62.89
55044;BME280;54902;50.420;18.854;2023-06-22T00:50:21;101510.31;;;21.73;62.96
55044;BME280;54902;50.420;18.854;2023-06-22T00:50:52;101517.81;;;21.73;62.94
55044;BME280;54902;50.420;18.854;2023-06-22T00:51:26;101515.88;;;21.73;62.92
55044;BME280;54902;50.420;18.854;2023-06-22T00:51:57;101519.70;;;21.72;62.88
55044;BME280;54902;50.420;18.854;2023-06-22T00:52:28;101523.52;;;21.71;62.82
55044;BME280;54902;50.420;18.854;2023-06-22T00:53:08;101520.59;;;21.73;62.85
55044;BME280;54902;50.420;18.854;2023-06-22T00:53:39;101522.48;;;21.72;62.95
55044;BME280;54902;50.420;18.854;2023-06-22T00:54:13;101533.61;;;21.72;63.00
55044;BME280;54902;50.420;18.854;2023-06-22T00:54:44;101526.16;;;21.73;62.98
55044;BME280;54902;50.420;18.854;2023-06-22T00:55:16;101530.83;;;21.72;62.97
55044;BME280;54902;50.420;18.854;2023-06-22T00:55:48;101537.29;;;21.73;62.96
55044;BME280;54902;50.420;18.854;2023-06-22T00:56:23;101531.72;;;21.73;62.91
55044;BME280;54902;50.420;18.854;2023-06-22T00:56:54;101529.09;;;21.71;62.90
55044;BME280;54902;50.420;18.854;2023-06-22T00:57:28;101536.40;;;21.72;62.99
55044;BME280;54902;50.420;18.854;2023-06-22T00:57:59;101536.40;;;21.72;63.02
55044;BME280;54902;50.420;18.854;2023-06-22T00:58:30;101535.54;;;21.72;62.96
55044;BME280;54902;50.420;18.854;2023-06-22T00:59:01;101540.08;;;21.73;62.90
55044;BME280;54902;50.420;18.854;2023-06-22T00:59:34;101537.29;;;21.73;62.91
55044;BME280;54902;50.420;18.854;2023-06-22T01:00:06;101536.40;;;21.72;63.02
55044;BME280;54902;50.420;18.854;2023-06-22T01:00:47;101531.72;;;21.73;63.06
55044;BME280;54902;50.420;18.854;2023-06-22T01:01:19;101532.58;;;21.73;63.03
55044;BME280;54902;50.420;18.854;2023-06-22T01:01:54;101534.31;;;21.74;63.01
55044;BME280;54902;50.420;18.854;2023-06-22T01:02:25;101527.01;;;21.73;63.09
55044;BME280;54902;50.420;18.854;2023-06-22T01:02:56;101531.53;;;21.74;63.13
55044;BME280;54902;50.420;18.854;2023-06-22T01:03:27;101525.98;;;21.74;63.13
55044;BME280;54902;50.420;18.854;2023-06-22T01:03:59;101518.66;;;21.73;63.16
55044;BME280;54902;50.420;18.854;2023-06-22T01:04:37;101524.04;;;21.75;63.19
55044;BME280;54902;50.420;18.854;2023-06-22T01:05:08;101525.98;;;21.74;63.18
55044;BME280;54902;50.420;18.854;2023-06-22T01:05:40;101523.18;;;21.74;63.26
55044;BME280;54902;50.420;18.854;2023-06-22T01:06:18;101522.48;;;21.72;63.27
55044;BME280;54902;50.420;18.854;2023-06-22T01:07:02;101518.47;;;21.75;63.35
55044;BME280;54902;50.420;18.854;2023-06-22T01:07:42;101524.23;;;21.73;63.36
55044;BME280;54902;50.420;18.854;2023-06-22T01:08:23;101528.75;;;21.74;63.24
55044;BME280;54902;50.420;18.854;2023-06-22T01:09:02;101537.09;;;21.74;63.24
55044;BME280;54902;50.420;18.854;2023-06-22T01:10:28;101534.31;;;21.74;63.26
55044;BME280;54902;50.420;18.854;2023-06-22T01:11:14;101531.72;;;21.73;63.31
55044;BME280;54902;50.420;18.854;2023-06-22T01:12:01;101527.01;;;21.73;63.20
55044;BME280;54902;50.420;18.854;2023-06-22T01:12:30;101537.29;;;21.73;63.35
55044;BME280;54902;50.420;18.854;2023-06-22T01:13:22;101528.05;;;21.72;63.36
55044;BME280;54902;50.420;18.854;2023-06-22T01:13:57;101535.54;;;21.72;63.36
55044;BME280;54902;50.420;18.854;2023-06-22T01:14:39;101529.09;;;21.71;63.34
55044;BME280;54902;50.420;18.854;2023-06-22T01:15:25;101530.83;;;21.72;63.30
55044;BME280;54902;50.420;18.854;2023-06-22T01:16:45;101529.28;;;21.70;63.34
55044;BME280;54902;50.420;18.854;2023-06-22T01:17:19;101525.63;;;21.69;63.30
55044;BME280;54902;50.420;18.854;2023-06-22T01:17:52;101526.69;;;21.68;63.30
55044;BME280;54902;50.420;18.854;2023-06-22T01:18:27;101523.90;;;21.68;63.34
55044;BME280;54902;50.420;18.854;2023-06-22T01:19:48;101524.09;;;21.67;63.46
55044;BME280;54902;50.420;18.854;2023-06-22T01:20:28;101519.56;;;21.66;63.50
55044;BME280;54902;50.420;18.854;2023-06-22T01:21:00;101519.74;;;21.64;63.56
55044;BME280;54902;50.420;18.854;2023-06-22T01:21:38;101516.11;;;21.64;63.73
55044;BME280;54902;50.420;18.854;2023-06-22T01:22:10;101522.53;;;21.64;63.67
55044;BME280;54902;50.420;18.854;2023-06-22T01:23:42;101517.34;;;21.62;63.43
55044;BME280;54902;50.420;18.854;2023-06-22T01:25:06;101523.94;;;21.61;63.32
55044;BME280;54902;50.420;18.854;2023-06-22T01:25:47;101524.98;;;21.60;63.30
55044;BME280;54902;50.420;18.854;2023-06-22T01:27:56;101531.43;;;21.60;63.28
55044;BME280;54902;50.420;18.854;2023-06-22T01:29:16;101530.54;;;21.60;63.38
55044;BME280;54902;50.420;18.854;2023-06-22T01:29:53;101527.77;;;21.60;63.47
55044;BME280;54902;50.420;18.854;2023-06-22T01:30:35;101523.09;;;21.60;63.49
55044;BME280;54902;50.420;18.854;2023-06-22T01:31:12;101515.59;;;21.61;63.61
55044;BME280;54902;50.420;18.854;2023-06-22T01:31:45;101522.20;;;21.60;63.52
55044;BME280;54902;50.420;18.854;2023-06-22T01:32:18;101512.99;;;21.59;63.54
55044;BME280;54902;50.420;18.854;2023-06-22T01:32:50;101513.85;;;21.60;63.54
55044;BME280;54902;50.420;18.854;2023-06-22T01:33:22;101511.06;;;21.60;63.45
55044;BME280;54902;50.420;18.854;2023-06-22T01:33:57;101507.44;;;21.59;63.41
55044;BME280;54902;50.420;18.854;2023-06-22T01:34:31;101506.58;;;21.59;63.36
55044;BME280;54902;50.420;18.854;2023-06-22T01:35:05;101515.78;;;21.59;63.33
55044;BME280;54902;50.420;18.854;2023-06-22T01:35:37;101516.81;;;21.58;63.29
55044;BME280;54902;50.420;18.854;2023-06-22T01:36:09;101504.84;;;21.58;63.29
55044;BME280;54902;50.420;18.854;2023-06-22T01:36:42;101510.41;;;21.58;63.29
55044;BME280;54902;50.420;18.854;2023-06-22T01:37:14;101505.02;;;21.56;63.32
55044;BME280;54902;50.420;18.854;2023-06-22T01:37:46;101512.29;;;21.57;63.40
55044;BME280;54902;50.420;18.854;2023-06-22T01:38:18;101507.80;;;21.56;63.44
55044;BME280;54902;50.420;18.854;2023-06-22T01:38:49;101506.92;;;21.56;63.48
55044;BME280;54902;50.420;18.854;2023-06-22T01:39:21;101510.74;;;21.55;63.47
55044;BME280;54902;50.420;18.854;2023-06-22T01:39:53;101516.30;;;21.55;63.47
55044;BME280;54902;50.420;18.854;2023-06-22T01:40:26;101517.19;;;21.55;63.41
55044;BME280;54902;50.420;18.854;2023-06-22T01:40:58;101513.52;;;21.55;63.35
55044;BME280;54902;50.420;18.854;2023-06-22T01:41:33;101517.38;;;21.54;63.36
55044;BME280;54902;50.420;18.854;2023-06-22T01:42:04;101512.85;;;21.53;63.37
55044;BME280;54902;50.420;18.854;2023-06-22T01:42:36;101515.63;;;21.53;63.38
55044;BME280;54902;50.420;18.854;2023-06-22T01:43:08;101520.34;;;21.52;63.39
55044;BME280;54902;50.420;18.854;2023-06-22T01:43:39;101521.20;;;21.53;63.37
55044;BME280;54902;50.420;18.854;2023-06-22T01:44:12;101519.27;;;21.53;63.38
55044;BME280;54902;50.420;18.854;2023-06-22T01:44:43;101517.56;;;21.52;63.48
55044;BME280;54902;50.420;18.854;2023-06-22T01:45:16;101517.56;;;21.52;63.47
55044;BME280;54902;50.420;18.854;2023-06-22T01:45:48;101522.23;;;21.52;63.46
55044;BME280;54902;50.420;18.854;2023-06-22T01:46:19;101524.17;;;21.51;63.46
55044;BME280;54902;50.420;18.854;2023-06-22T01:46:52;101527.80;;;21.52;63.40
55044;BME280;54902;50.420;18.854;2023-06-22T01:47:24;101531.63;;;21.51;63.35
55044;BME280;54902;50.420;18.854;2023-06-22T01:47:56;101534.39;;;21.51;63.31
55044;BME280;54902;50.420;18.854;2023-06-22T01:48:28;101528.84;;;21.51;63.28
55044;BME280;54902;50.420;18.854;2023-06-22T01:49:06;101531.63;;;21.51;63.29
55044;BME280;54902;50.420;18.854;2023-06-22T01:49:38;101522.23;;;21.52;63.41
55044;BME280;54902;50.420;18.854;2023-06-22T01:50:09;101529.73;;;21.51;63.50
55044;BME280;54902;50.420;18.854;2023-06-22T01:50:41;101528.84;;;21.51;63.52
55044;BME280;54902;50.420;18.854;2023-06-22T01:51:12;101514.93;;;21.51;63.56
55044;BME280;54902;50.420;18.854;2023-06-22T01:51:43;101528.99;;;21.49;63.62
55044;BME280;54902;50.420;18.854;2023-06-22T01:52:15;101518.79;;;21.50;63.61
55044;BME280;54902;50.420;18.854;2023-06-22T01:52:46;101529.91;;;21.50;63.59
55044;BME280;54902;50.420;18.854;2023-06-22T01:53:17;101529.91;;;21.50;63.67
55044;BME280;54902;50.420;18.854;2023-06-22T01:53:48;101530.77;;;21.50;63.68
55044;BME280;54902;50.420;18.854;2023-06-22T01:54:19;101529.91;;;21.50;63.69
55044;BME280;54902;50.420;18.854;2023-06-22T01:54:50;101522.57;;;21.49;63.71
55044;BME280;54902;50.420;18.854;2023-06-22T01:55:21;101527.28;;;21.48;63.73
55044;BME280;54902;50.420;18.854;2023-06-22T01:55:52;101523.61;;;21.48;63.75
55044;BME280;54902;50.420;18.854;2023-06-22T01:56:23;101531.96;;;21.48;63.77
55044;BME280;54902;50.420;18.854;2023-06-22T01:56:54;101525.54;;;21.47;63.76
55044;BME280;54902;50.420;18.854;2023-06-22T01:57:26;101531.10;;;21.47;63.73
55044;BME280;54902;50.420;18.854;2023-06-22T01:57:58;101529.37;;;21.46;63.74
55044;BME280;54902;50.420;18.854;2023-06-22T01:58:30;101522.95;;;21.46;63.73
55044;BME280;54902;50.420;18.854;2023-06-22T02:00:27;101526.05;;;21.43;63.72
55044;BME280;54902;50.420;18.854;2023-06-22T02:02:06;101529.21;;;21.40;63.72
55044;BME280;54902;50.420;18.854;2023-06-22T02:02:33;101526.61;;;21.38;63.68
55044;BME280;54902;50.420;18.854;2023-06-22T02:03:14;101522.09;;;21.37;63.66
55044;BME280;54902;50.420;18.854;2023-06-22T02:03:57;101525.05;;;21.36;63.69
55044;BME280;54902;50.420;18.854;2023-06-22T02:04:38;101524.38;;;21.34;63.76
55044;BME280;54902;50.420;18.854;2023-06-22T02:05:15;101529.95;;;21.34;63.73
55044;BME280;54902;50.420;18.854;2023-06-22T02:06:33;101520.89;;;21.32;63.66
55044;BME280;54902;50.420;18.854;2023-06-22T02:07:11;101533.23;;;21.29;63.69
55044;BME280;54902;50.420;18.854;2023-06-22T02:08:30;101525.94;;;21.28;63.62
55044;BME280;54902;50.420;18.854;2023-06-22T02:09:08;101521.45;;;21.27;63.59
55044;BME280;54902;50.420;18.854;2023-06-22T02:09:43;101526.30;;;21.25;63.60
55044;BME280;54902;50.420;18.854;2023-06-22T02:10:16;101526.30;;;21.25;63.59
55044;BME280;54902;50.420;18.854;2023-06-22T02:10:54;101530.12;;;21.24;63.58
55044;BME280;54902;50.420;18.854;2023-06-22T02:11:28;101522.85;;;21.23;63.52
55044;BME280;54902;50.420;18.854;2023-06-22T02:12:02;101529.45;;;21.22;63.52
55044;BME280;54902;50.420;18.854;2023-06-22T02:12:36;101530.49;;;21.21;63.52
55044;BME280;54902;50.420;18.854;2023-06-22T02:13:09;101540.75;;;21.21;63.50
55044;BME280;54902;50.420;18.854;2023-06-22T02:13:40;101535.20;;;21.21;63.47
55044;BME280;54902;50.420;18.854;2023-06-22T02:14:14;101533.45;;;21.20;63.51
55044;BME280;54902;50.420;18.854;2023-06-22T02:14:46;101536.23;;;21.20;63.53
55044;BME280;54902;50.420;18.854;2023-06-22T02:15:17;101531.70;;;21.19;63.59
55044;BME280;54902;50.420;18.854;2023-06-22T02:15:48;101535.52;;;21.18;63.64
55044;BME280;54902;50.420;18.854;2023-06-22T02:16:19;101542.16;;;21.17;63.60
55044;BME280;54902;50.420;18.854;2023-06-22T02:16:51;101535.70;;;21.16;63.57
55044;BME280;54902;50.420;18.854;2023-06-22T02:17:25;101545.97;;;21.16;63.55
55044;BME280;54902;50.420;18.854;2023-06-22T02:17:57;101534.14;;;21.14;63.68
55044;BME280;54902;50.420;18.854;2023-06-22T02:18:28;101541.63;;;21.13;63.72
55044;BME280;54902;50.420;18.854;2023-06-22T02:19:01;101534.34;;;21.12;63.74
55044;BME280;54902;50.420;18.854;2023-06-22T02:19:37;101540.78;;;21.13;63.83
55044;BME280;54902;50.420;18.854;2023-06-22T02:20:12;101546.33;;;21.13;63.90
55044;BME280;54902;50.420;18.854;2023-06-22T02:20:44;101543.71;;;21.11;63.93
55044;BME280;54902;50.420;18.854;2023-06-22T02:21:14;101540.08;;;21.11;63.94
55044;BME280;54902;50.420;18.854;2023-06-22T02:21:45;101543.88;;;21.10;63.93
55044;BME280;54902;50.420;18.854;2023-06-22T02:22:16;101537.48;;;21.09;63.98
55044;BME280;54902;50.420;18.854;2023-06-22T02:22:47;101538.33;;;21.10;63.97
55044;BME280;54902;50.420;18.854;2023-06-22T02:23:18;101536.63;;;21.09;63.95
55044;BME280;54902;50.420;18.854;2023-06-22T02:23:49;101533.13;;;21.07;63.95
55044;BME280;54902;50.420;18.854;2023-06-22T02:24:20;101534.16;;;21.06;63.93
55044;BME280;54902;50.420;18.854;2023-06-22T02:24:54;101533.31;;;21.05;63.94
55044;BME280;54902;50.420;18.854;2023-06-22T02:25:24;101543.54;;;21.05;63.93
55044;BME280;54902;50.420;18.854;2023-06-22T02:25:55;101534.34;;;21.04;63.94
55044;BME280;54902;50.420;18.854;2023-06-22T02:26:27;101543.72;;;21.03;63.94
55044;BME280;54902;50.420;18.854;2023-06-22T02:26:59;101542.02;;;21.03;63.99
55044;BME280;54902;50.420;18.854;2023-06-22T02:27:30;101540.27;;;21.02;63.99
55044;BME280;54902;50.420;18.854;2023-06-22T02:28:01;101532.13;;;21.00;63.99
55044;BME280;54902;50.420;18.854;2023-06-22T02:28:32;101541.49;;;20.99;64.00
55044;BME280;54902;50.420;18.854;2023-06-22T02:29:03;101536.79;;;21.00;64.00
55044;BME280;54902;50.420;18.854;2023-06-22T02:29:34;101540.78;;;20.97;64.01
55044;BME280;54902;50.420;18.854;2023-06-22T02:30:06;101540.78;;;20.97;64.04
55044;BME280;54902;50.420;18.854;2023-06-22T02:30:37;101545.67;;;20.95;64.02
55044;BME280;54902;50.420;18.854;2023-06-22T02:31:09;101550.37;;;20.95;64.04
55044;BME280;54902;50.420;18.854;2023-06-22T02:31:40;101543.07;;;20.94;64.07
55044;BME280;54902;50.420;18.854;2023-06-22T02:32:11;101547.73;;;20.93;64.08
55044;BME280;54902;50.420;18.854;2023-06-22T02:32:42;101546.02;;;20.92;64.08
55044;BME280;54902;50.420;18.854;2023-06-22T02:33:13;101539.58;;;20.92;64.11
55044;BME280;54902;50.420;18.854;2023-06-22T02:33:44;101554.52;;;20.91;64.13
55044;BME280;54902;50.420;18.854;2023-06-22T02:34:16;101554.70;;;20.89;64.12
55044;BME280;54902;50.420;18.854;2023-06-22T02:34:48;101551.91;;;20.89;64.12
55044;BME280;54902;50.420;18.854;2023-06-22T02:35:19;101544.65;;;20.88;64.16
55044;BME280;54902;50.420;18.854;2023-06-22T02:35:50;101548.46;;;20.87;64.15
55044;BME280;54902;50.420;18.854;2023-06-22T02:36:21;101555.05;;;20.86;64.16
55044;BME280;54902;50.420;18.854;2023-06-22T02:36:52;101549.68;;;20.85;64.21
55044;BME280;54902;50.420;18.854;2023-06-22T02:37:23;101551.60;;;20.84;64.25
55044;BME280;54902;50.420;18.854;2023-06-22T02:37:55;101546.19;;;20.83;64.21
55044;BME280;54902;50.420;18.854;2023-06-22T02:38:26;101556.45;;;20.82;64.22
55044;BME280;54902;50.420;18.854;2023-06-22T02:38:58;101553.85;;;20.81;64.25
55044;BME280;54902;50.420;18.854;2023-06-22T02:39:31;101547.40;;;20.80;64.22
55044;BME280;54902;50.420;18.854;2023-06-22T02:40:03;101555.06;;;20.78;64.23
55044;BME280;54902;50.420;18.854;2023-06-22T02:40:34;101557.84;;;20.78;64.23
55044;BME280;54902;50.420;18.854;2023-06-22T02:41:05;101569.13;;;20.77;64.21
55044;BME280;54902;50.420;18.854;2023-06-22T02:41:37;101561.83;;;20.76;64.17
55044;BME280;54902;50.420;18.854;2023-06-22T02:42:08;101569.31;;;20.75;64.19
55044;BME280;54902;50.420;18.854;2023-06-22T02:42:41;101570.35;;;20.74;64.21
55044;BME280;54902;50.420;18.854;2023-06-22T02:43:12;101570.35;;;20.74;64.22
55044;BME280;54902;50.420;18.854;2023-06-22T02:43:43;101568.59;;;20.73;64.24
55044;BME280;54902;50.420;18.854;2023-06-22T02:44:15;101572.41;;;20.72;64.28
55044;BME280;54902;50.420;18.854;2023-06-22T02:44:46;101569.64;;;20.72;64.30
55044;BME280;54902;50.420;18.854;2023-06-22T02:45:17;101572.41;;;20.72;64.27
55044;BME280;54902;50.420;18.854;2023-06-22T02:45:48;101569.64;;;20.72;64.27
55044;BME280;54902;50.420;18.854;2023-06-22T02:46:19;101571.55;;;20.72;64.32
55044;BME280;54902;50.420;18.854;2023-06-22T02:46:50;101569.78;;;20.71;64.30
55044;BME280;54902;50.420;18.854;2023-06-22T02:47:21;101569.96;;;20.69;64.32
55044;BME280;54902;50.420;18.854;2023-06-22T02:47:52;101572.73;;;20.69;64.33
55044;BME280;54902;50.420;18.854;2023-06-22T02:48:23;101564.41;;;20.69;64.33
55044;BME280;54902;50.420;18.854;2023-06-22T02:48:55;101568.21;;;20.68;64.33
55044;BME280;54902;50.420;18.854;2023-06-22T02:49:26;101564.58;;;20.68;64.38
55044;BME280;54902;50.420;18.854;2023-06-22T02:49:57;101563.73;;;20.67;64.39
55044;BME280;54902;50.420;18.854;2023-06-22T02:50:28;101567.54;;;20.66;64.38
55044;BME280;54902;50.420;18.854;2023-06-22T02:50:59;101567.54;;;20.66;64.36
55044;BME280;54902;50.420;18.854;2023-06-22T02:52:06;101565.79;;;20.65;64.37
55044;BME280;54902;50.420;18.854;2023-06-22T02:52:37;101564.05;;;20.64;64.38
55044;BME280;54902;50.420;18.854;2023-06-22T02:53:09;101564.94;;;20.65;64.39
55044;BME280;54902;50.420;18.854;2023-06-22T02:53:40;101569.60;;;20.64;64.42
55044;BME280;54902;50.420;18.854;2023-06-22T02:54:16;101565.97;;;20.64;64.44
55044;BME280;54902;50.420;18.854;2023-06-22T02:54:47;101567.90;;;20.63;64.45
55044;BME280;54902;50.420;18.854;2023-06-22T02:55:18;101574.31;;;20.64;64.47
55044;BME280;54902;50.420;18.854;2023-06-22T02:55:48;101569.78;;;20.63;64.47
55044;BME280;54902;50.420;18.854;2023-06-22T02:56:19;101575.34;;;20.63;64.44
55044;BME280;54902;50.420;18.854;2023-06-22T02:56:55;101570.83;;;20.62;64.33
55044;BME280;54902;50.420;18.854;2023-06-22T02:57:26;101577.27;;;20.62;64.30
55044;BME280;54902;50.420;18.854;2023-06-22T02:57:57;101587.48;;;20.62;64.28
55044;BME280;54902;50.420;18.854;2023-06-22T02:58:31;101570.33;;;20.58;64.06
55044;BME280;54902;50.420;18.854;2023-06-22T02:59:08;101583.84;;;20.61;64.22
55044;BME280;54902;50.420;18.854;2023-06-22T02:59:41;101565.09;;;20.55;64.20